Time;durP1;ratioP1;P1;durP2;ratioP2;P2;SDS_P1;SDS_P2;PMS_P1;PMS_P2;Temp;Humidity;BMP_temperature;BMP_pressure;BME280_temperature;BME280_humidity;BME280_pressure;Samples;Min_cycle;Max_cycle;Signal;HPM_P1;HPM_P2
2023/05/27 00:00:08;;;;;;;0.40;0.40;;;;;;;13.32;61.19;97569.78;29395;272;64005;-52
2023/05/27 00:00:40;;;;;;;0.50;0.50;;;;;;;13.33;60.80;97565.12;29396;215;63009;-52
2023/05/27 00:01:12;;;;;;;0.50;0.50;;;;;;;13.34;60.51;97559.38;29395;261;64009;-52
2023/05/27 00:01:44;;;;;;;0.50;0.50;;;;;;;13.32;60.69;97564.31;29396;283;63009;-53
2023/05/27 00:02:16;;;;;;;0.40;0.40;;;;;;;13.33;60.89;97570.59;29396;197;63004;-52
2023/05/27 00:02:48;;;;;;;0.47;0.47;;;;;;;13.32;61.28;97569.78;29396;212;63009;-53
2023/05/27 00:03:19;;;;;;;0.40;0.40;;;;;;;13.30;60.35;97561.06;29396;280;63004;-53
2023/05/27 00:03:50;;;;;;;0.50;0.50;;;;;;;13.27;61.17;97564.38;29396;252;63008;-53
2023/05/27 00:04:22;;;;;;;0.40;0.40;;;;;;;13.24;61.74;97567.69;29396;230;63004;-53
2023/05/27 00:04:54;;;;;;;0.50;0.50;;;;;;;13.23;62.58;97570.72;29396;211;63009;-52
2023/05/27 00:05:26;;;;;;;0.40;0.40;;;;;;;13.22;62.94;97569.09;29396;202;63010;-53
2023/05/27 00:06:01;;;;;;;0.50;0.50;;;;;;;13.22;62.49;97580.00;29395;213;64005;-52
2023/05/27 00:06:35;;;;;;;0.40;0.40;;;;;;;13.21;62.35;97573.72;29396;269;63005;-55
2023/05/27 00:07:07;;;;;;;0.50;0.50;;;;;;;13.22;62.29;97569.91;29396;215;63009;-53
2023/05/27 00:07:39;;;;;;;0.50;0.50;;;;;;;13.21;63.26;97571.00;29396;230;63005;-53
2023/05/27 00:08:12;;;;;;;0.50;0.50;;;;;;;13.22;62.39;97569.91;29396;202;63009;-53
2023/05/27 00:08:43;;;;;;;0.50;0.50;;;;;;;13.22;62.47;97569.91;29396;220;63004;-53
2023/05/27 00:09:15;;;;;;;0.50;0.50;;;;;;;13.22;62.66;97569.91;29396;208;63013;-53
2023/05/27 00:09:47;;;;;;;0.50;0.50;;;;;;;13.19;61.74;97570.50;29396;233;63004;-52
2023/05/27 00:10:19;;;;;;;0.47;0.47;;;;;;;13.23;61.71;97571.53;29396;218;63008;-54
2023/05/27 00:10:51;;;;;;;0.50;0.50;;;;;;;13.24;61.39;97567.69;29396;218;63004;-65
2023/05/27 00:11:22;;;;;;;0.50;0.50;;;;;;;13.26;60.76;97565.50;29395;231;64013;-52
2023/05/27 00:11:54;;;;;;;0.50;0.50;;;;;;;13.31;60.62;97567.34;29396;210;63004;-53
2023/05/27 00:12:26;;;;;;;0.40;0.40;;;;;;;13.31;60.49;97562.69;29396;220;63009;-53
2023/05/27 00:12:57;;;;;;;0.50;0.50;;;;;;;13.33;60.06;97562.41;29396;197;63005;-54
2023/05/27 00:13:28;;;;;;;0.50;0.50;;;;;;;13.35;59.63;97558.28;29396;235;63009;-52
2023/05/27 00:14:00;;;;;;;0.40;0.40;;;;;;;13.37;59.46;97558.81;29396;204;63005;-52
2023/05/27 00:14:31;;;;;;;0.50;0.50;;;;;;;13.39;59.33;97553.87;29396;205;63009;-62
2023/05/27 00:15:04;;;;;;;0.50;0.50;;;;;;;13.40;59.66;97560.94;29396;262;63005;-52
2023/05/27 00:15:40;;;;;;;0.50;0.50;;;;;;;13.43;59.74;97558.72;29396;227;63009;-52
2023/05/27 00:16:12;;;;;;;0.50;0.50;;;;;;;13.44;61.00;97571.25;29396;205;63004;-61
2023/05/27 00:16:54;;;;;;;0.50;0.50;;;;;;;13.46;60.72;97563.59;29395;228;64013;-53
2023/05/27 00:17:36;;;;;;;0.50;0.50;;;;;;;13.47;60.82;97570.69;29395;212;64009;-52
2023/05/27 00:18:15;;;;;;;0.50;0.50;;;;;;;13.47;61.12;97570.69;29395;235;64013;-64
2023/05/27 00:18:48;;;;;;;0.50;0.50;;;;;;;13.48;61.10;97561.37;29396;246;63005;-52
2023/05/27 00:19:19;;;;;;;0.50;0.50;;;;;;;13.48;61.35;97569.56;29396;261;63009;-52
2023/05/27 00:19:53;;;;;;;0.50;0.50;;;;;;;13.48;60.72;97566.84;29396;254;63005;-52
2023/05/27 00:20:24;;;;;;;0.43;0.43;;;;;;;13.48;61.05;97566.84;29396;206;63009;-52
2023/05/27 00:20:58;;;;;;;0.50;0.50;;;;;;;13.48;60.78;97561.37;29396;249;63005;-52
2023/05/27 00:21:30;;;;;;;0.50;0.50;;;;;;;13.50;60.79;97567.34;29396;197;63016;-52
2023/05/27 00:22:01;;;;;;;0.40;0.40;;;;;;;13.49;60.74;97563.81;29396;220;63005;-52
2023/05/27 00:22:34;;;;;;;0.40;0.40;;;;;;;13.50;60.38;97564.63;29396;269;63009;-53
2023/05/27 00:23:06;;;;;;;0.40;0.40;;;;;;;13.50;60.62;97564.63;29396;291;63004;-52
2023/05/27 00:23:38;;;;;;;0.40;0.40;;;;;;;13.48;59.70;97561.37;29395;222;64013;-52
2023/05/27 00:24:11;;;;;;;0.50;0.50;;;;;;;13.47;60.41;97565.22;29396;236;63004;-52
2023/05/27 00:24:44;;;;;;;0.50;0.50;;;;;;;13.46;61.00;97569.06;29396;229;63009;-61
2023/05/27 00:25:16;;;;;;;0.40;0.40;;;;;;;13.45;59.53;97568.25;29396;209;63004;-52
2023/05/27 00:25:49;;;;;;;0.40;0.40;;;;;;;13.46;58.77;97558.97;29396;197;63008;-52
2023/05/27 00:26:21;;;;;;;1.42;1.42;;;;;;;13.47;58.98;97554.31;29396;274;63005;-52
2023/05/27 00:26:53;;;;;;;0.50;0.50;;;;;;;13.49;59.06;97563.00;29396;212;63009;-52
2023/05/27 00:27:24;;;;;;;0.50;0.50;;;;;;;13.49;59.67;97558.38;29396;214;63005;-65
2023/05/27 00:27:56;;;;;;;0.40;0.40;;;;;;;13.49;60.87;97563.00;29396;214;63009;-52
2023/05/27 00:28:30;;;;;;;0.40;0.40;;;;;;;13.44;61.14;97560.34;29396;202;63005;-62
2023/05/27 00:29:05;;;;;;;0.50;0.50;;;;;;;13.44;59.45;97565.81;29395;199;64013;-54
2023/05/27 00:29:37;;;;;;;0.50;0.50;;;;;;;13.40;59.68;97560.94;29396;202;63005;-63
2023/05/27 00:30:09;;;;;;;0.40;0.40;;;;;;;13.40;59.57;97558.22;29396;232;63018;-52
2023/05/27 00:30:41;;;;;;;0.50;0.50;;;;;;;13.41;59.84;97557.13;29396;222;63006;-52
2023/05/27 00:31:12;;;;;;;0.50;0.50;;;;;;;13.42;61.08;97563.38;29396;202;63009;-52
2023/05/27 00:31:43;;;;;;;0.50;0.50;;;;;;;13.39;61.11;97563.97;29396;218;63009;-52
2023/05/27 00:32:15;;;;;;;0.40;0.40;;;;;;;13.38;61.09;97565.88;29396;235;63009;-63
2023/05/27 00:32:46;;;;;;;0.50;0.50;;;;;;;13.38;60.89;97568.59;29396;250;63004;-62
2023/05/27 00:33:18;;;;;;;0.50;0.50;;;;;;;13.39;60.83;97567.50;29396;215;63008;-52
2023/05/27 00:33:50;;;;;;;0.43;0.43;;;;;;;13.37;61.06;97569.72;29396;225;63005;-52
2023/05/27 00:34:21;;;;;;;0.50;0.50;;;;;;;13.36;60.67;97568.09;29395;223;64014;-52
2023/05/27 00:34:53;;;;;;;0.50;0.50;;;;;;;13.36;60.00;97564.53;29396;242;63005;-52
2023/05/27 00:35:24;;;;;;;0.45;0.45;;;;;;;13.34;59.88;97556.66;29396;210;63009;-53
2023/05/27 00:35:55;;;;;;;0.50;0.50;;;;;;;13.33;60.63;97567.84;29396;246;63005;-52
2023/05/27 00:36:27;;;;;;;0.50;0.50;;;;;;;13.30;60.68;97563.81;29396;206;63009;-62
2023/05/27 00:36:59;;;;;;;0.45;0.45;;;;;;;13.31;61.24;97568.16;29397;197;63005;-53
2023/05/27 00:37:31;;;;;;;0.50;0.50;;;;;;;13.30;60.87;97563.81;29397;197;63009;-52
2023/05/27 00:38:05;;;;;;;0.50;0.50;;;;;;;13.28;60.67;97557.84;29397;198;63004;-52
2023/05/27 00:38:37;;;;;;;0.50;0.50;;;;;;;13.27;60.91;97561.66;29397;230;63009;-52
2023/05/27 00:39:08;;;;;;;0.50;0.50;;;;;;;13.26;60.83;97559.22;29397;202;63004;-52
2023/05/27 00:39:40;;;;;;;0.50;0.50;;;;;;;13.25;60.86;97555.69;29396;218;64012;-63
2023/05/27 00:40:13;;;;;;;0.50;0.50;;;;;;;13.24;61.03;97559.53;29397;197;63004;-52
2023/05/27 00:40:45;;;;;;;0.47;0.47;;;;;;;13.20;60.83;97555.75;29397;211;63008;-52
2023/05/27 00:41:17;;;;;;;0.50;0.50;;;;;;;13.17;61.20;97556.34;29397;226;63004;-52
2023/05/27 00:41:50;;;;;;;0.50;0.50;;;;;;;13.16;60.98;97560.19;29397;287;63009;-52
2023/05/27 00:42:21;;;;;;;0.50;0.50;;;;;;;13.17;61.17;97561.78;29397;215;63005;-53
2023/05/27 00:42:56;;;;;;;0.50;0.50;;;;;;;13.17;61.19;97564.53;29397;249;63009;-62
2023/05/27 00:43:27;;;;;;;0.50;0.50;;;;;;;13.16;60.44;97552.03;29397;196;63005;-53
2023/05/27 00:43:59;;;;;;;0.50;0.50;;;;;;;13.16;60.31;97554.75;29397;249;63009;-53
2023/05/27 00:44:30;;;;;;;0.50;0.50;;;;;;;13.16;60.23;97549.31;29397;196;63014;-55
2023/05/27 00:45:07;;;;;;;0.40;0.40;;;;;;;13.18;60.52;97557.16;29396;246;64013;-52
2023/05/27 00:45:39;;;;;;;0.50;0.50;;;;;;;13.21;59.67;97551.94;29397;249;63004;-52
2023/05/27 00:46:11;;;;;;;0.50;0.50;;;;;;;13.21;59.30;97546.47;29397;219;63009;-52
2023/05/27 00:46:43;;;;;;;0.50;0.50;;;;;;;13.23;60.04;97554.37;29397;316;63004;-63
2023/05/27 00:47:16;;;;;;;0.50;0.50;;;;;;;13.24;59.89;97550.53;29396;260;63023;-53
2023/05/27 00:47:49;;;;;;;0.50;0.50;;;;;;;13.24;60.37;97554.06;29397;218;63004;-52
2023/05/27 00:48:21;;;;;;;0.43;0.43;;;;;;;13.24;60.32;97556.78;29396;254;64013;-61
2023/05/27 00:48:52;;;;;;;0.50;0.50;;;;;;;13.27;60.17;97550.75;29397;216;63004;-52
2023/05/27 00:49:26;;;;;;;0.50;0.50;;;;;;;13.27;59.85;97550.75;29397;242;63009;-52
2023/05/27 00:50:03;;;;;;;0.50;0.50;;;;;;;13.28;60.33;97546.94;29397;228;63005;-51
2023/05/27 00:50:35;;;;;;;0.50;0.50;;;;;;;13.29;59.75;97548.56;29396;213;63009;-52
2023/05/27 00:51:06;;;;;;;0.50;0.50;;;;;;;13.29;59.88;97550.47;29396;197;63005;-52
2023/05/27 00:51:38;;;;;;;0.50;0.50;;;;;;;13.30;59.25;97549.38;29396;213;63017;-52
2023/05/27 00:52:10;;;;;;;0.50;0.50;;;;;;;13.29;59.72;97545.81;29395;241;64009;-52
2023/05/27 00:52:41;;;;;;;0.50;0.50;;;;;;;13.27;59.62;97548.03;29397;245;63009;-62
2023/05/27 00:53:14;;;;;;;0.50;0.50;;;;;;;13.28;59.58;97552.38;29396;251;63004;-52
2023/05/27 00:53:48;;;;;;;0.50;0.50;;;;;;;13.31;59.46;97551.00;29396;197;63009;-52
2023/05/27 00:54:20;;;;;;;0.50;0.50;;;;;;;13.31;58.89;97546.34;29396;222;63017;-52
2023/05/27 00:54:53;;;;;;;0.50;0.50;;;;;;;13.32;58.74;97542.53;29396;220;63020;-52
2023/05/27 00:55:26;;;;;;;0.50;0.50;;;;;;;13.33;58.64;97540.59;29396;222;63004;-52
2023/05/27 00:56:00;;;;;;;0.50;0.50;;;;;;;13.32;58.61;97536.25;29396;257;63008;-51
2023/05/27 00:56:32;;;;;;;0.50;0.50;;;;;;;13.34;59.23;97544.94;29396;245;63005;-52
2023/05/27 00:57:04;;;;;;;0.50;0.50;;;;;;;13.35;59.36;97547.37;29395;283;64014;-53
2023/05/27 00:57:37;;;;;;;0.50;0.50;;;;;;;13.36;59.28;97546.28;29396;317;63005;-52
2023/05/27 00:58:10;;;;;;;0.50;0.50;;;;;;;13.36;58.95;97543.56;29396;237;63009;-52
2023/05/27 00:58:43;;;;;;;0.50;0.50;;;;;;;13.38;58.97;97540.53;29396;231;63005;-52
2023/05/27 00:59:15;;;;;;;0.50;0.50;;;;;;;13.38;59.15;97541.34;29396;233;63009;-52
2023/05/27 00:59:46;;;;;;;0.50;0.50;;;;;;;13.39;58.86;97542.97;29396;229;63005;-52
2023/05/27 01:00:18;;;;;;;0.40;0.40;;;;;;;13.41;58.76;97539.94;29396;328;63009;-52
2023/05/27 01:00:51;;;;;;;0.50;0.50;;;;;;;13.43;58.52;97545.09;29396;265;63004;-52
2023/05/27 01:01:25;;;;;;;0.50;0.50;;;;;;;13.43;57.80;97539.66;29396;232;63009;-52
2023/05/27 01:01:56;;;;;;;0.50;0.50;;;;;;;13.43;57.73;97540.47;29395;236;64009;-53
2023/05/27 01:02:28;;;;;;;0.50;0.50;;;;;;;13.43;57.44;97537.75;29396;196;63008;-52
2023/05/27 01:03:00;;;;;;;0.40;0.40;;;;;;;13.45;57.79;97537.44;29396;222;63005;-52
2023/05/27 01:03:34;;;;;;;0.50;0.50;;;;;;;13.46;57.28;97539.06;29396;242;63008;-52
2023/05/27 01:04:05;;;;;;;0.50;0.50;;;;;;;13.45;57.07;97535.53;29396;206;63005;-52
2023/05/27 01:04:39;;;;;;;0.50;0.50;;;;;;;13.46;57.02;97530.87;29396;363;63009;-52
2023/05/27 01:05:13;;;;;;;0.50;0.50;;;;;;;13.47;57.49;97532.50;29396;205;63005;-52
2023/05/27 01:05:44;;;;;;;0.50;0.50;;;;;;;13.46;58.18;97542.59;29396;200;63009;-52
2023/05/27 01:06:47;;;;;;;0.55;0.55;;;;;;;13.48;58.09;97539.59;29396;203;63005;-52
2023/05/27 01:07:56;;;;;;;0.40;0.40;;;;;;;13.44;58.79;97541.28;29395;198;64013;-52
2023/05/27 01:08:37;;;;;;;0.50;0.50;;;;;;;13.39;59.02;97534.78;29396;266;63004;-52
2023/05/27 01:09:24;;;;;;;1.02;1.02;;;;;;;13.39;59.25;97542.16;29418;299;63009;-52
2023/05/27 01:10:18;;;;;;;0.50;0.50;;;;;;;13.36;59.34;97538.09;29396;202;63004;-52
2023/05/27 01:10:54;;;;;;;0.50;0.50;;;;;;;13.34;60.07;97545.75;29396;213;63009;-52
2023/05/27 01:11:31;;;;;;;0.50;0.50;;;;;;;13.32;59.18;97542.53;29396;257;63005;-52
2023/05/27 01:12:14;;;;;;;0.50;0.50;;;;;;;13.34;58.76;97536.78;29395;242;64014;-50
2023/05/27 01:13:39;;;;;;;0.50;0.50;;;;;;;13.36;57.38;97527.19;29396;221;63005;-52
2023/05/27 01:14:13;;;;;;;0.50;0.50;;;;;;;13.37;58.19;97531.53;29395;253;64013;-52
2023/05/27 01:14:47;;;;;;;0.40;0.40;;;;;;;13.36;58.95;97526.38;29396;216;63005;-52
2023/05/27 01:15:19;;;;;;;0.50;0.50;;;;;;;13.35;59.28;97533.75;29395;215;64013;-52
2023/05/27 01:15:53;;;;;;;0.50;0.50;;;;;;;13.34;58.60;97534.84;29396;230;63015;-52
2023/05/27 01:16:26;;;;;;;0.40;0.40;;;;;;;13.35;58.68;97531.03;29396;219;63009;-52
2023/05/27 01:17:00;;;;;;;0.43;0.43;;;;;;;13.35;58.11;97530.22;29396;220;63010;-52
2023/05/27 01:17:37;;;;;;;0.50;0.50;;;;;;;13.35;58.23;97528.31;29396;197;63008;-52
2023/05/27 01:18:12;;;;;;;0.50;0.50;;;;;;;13.36;58.32;97532.66;29396;212;63004;-51
2023/05/27 01:18:49;;;;;;;0.50;0.50;;;;;;;13.36;57.69;97535.38;29395;244;64014;-54
2023/05/27 01:19:42;;;;;;;0.50;0.50;;;;;;;13.37;57.98;97528.81;29395;263;64009;-54
2023/05/27 01:20:15;;;;;;;0.50;0.50;;;;;;;13.37;57.85;97528.81;29396;259;63009;-52
2023/05/27 01:20:51;;;;;;;0.50;0.50;;;;;;;13.37;57.77;97534.28;29396;198;63005;-53
2023/05/27 01:21:24;;;;;;;0.50;0.50;;;;;;;13.38;57.27;97519.53;29396;252;63009;-52
2023/05/27 01:21:58;;;;;;;0.50;0.50;;;;;;;13.38;57.42;97527.72;29396;207;63008;-52
2023/05/27 01:22:31;;;;;;;0.50;0.50;;;;;;;13.39;57.49;97526.63;29396;205;63009;-62
2023/05/27 01:23:03;;;;;;;0.50;0.50;;;;;;;13.40;57.16;97527.41;29396;207;63004;-53
2023/05/27 01:23:38;;;;;;;0.45;0.45;;;;;;;13.40;57.32;97527.41;29395;232;64013;-52
2023/05/27 01:24:09;;;;;;;0.50;0.50;;;;;;;13.39;57.93;97523.87;29396;202;63004;-52
2023/05/27 01:24:41;;;;;;;0.50;0.50;;;;;;;13.39;58.29;97525.81;29396;240;63009;-52
2023/05/27 01:25:14;;;;;;;0.50;0.50;;;;;;;13.37;58.35;97528.81;29396;269;63004;-52
2023/05/27 01:25:45;;;;;;;0.50;0.50;;;;;;;13.36;58.52;97529.13;29396;272;63008;-52
2023/05/27 01:26:17;;;;;;;0.50;0.50;;;;;;;13.36;58.80;97531.84;29396;244;63005;-52
2023/05/27 01:26:49;;;;;;;0.50;0.50;;;;;;;13.35;58.99;97528.31;29396;226;63009;-52
2023/05/27 01:27:20;;;;;;;0.50;0.50;;;;;;;13.33;58.91;97527.78;29396;240;63005;-52
2023/05/27 01:27:55;;;;;;;0.50;0.50;;;;;;;13.32;59.04;97531.63;29396;203;63009;-52
2023/05/27 01:28:27;;;;;;;0.50;0.50;;;;;;;13.30;59.19;97527.56;29396;328;63000;-52
2023/05/27 01:28:59;;;;;;;0.50;0.50;;;;;;;13.29;59.04;97529.47;29395;245;64013;-52
2023/05/27 01:29:31;;;;;;;0.50;0.50;;;;;;;13.30;58.96;97533.00;29396;218;63005;-52
2023/05/27 01:30:04;;;;;;;0.50;0.50;;;;;;;13.32;58.78;97533.53;29395;250;64013;-52
2023/05/27 01:30:36;;;;;;;0.50;0.50;;;;;;;13.31;58.10;97535.44;29396;243;63004;-52
2023/05/27 01:31:21;;;;;;;0.50;0.50;;;;;;;13.33;57.75;97526.97;29396;197;63009;-52
2023/05/27 01:32:25;;;;;;;0.50;0.50;;;;;;;13.31;58.48;97530.00;29396;235;63004;-52
2023/05/27 01:33:08;;;;;;;0.50;0.50;;;;;;;13.29;59.29;97532.19;29396;222;63008;-51
2023/05/27 01:33:45;;;;;;;0.50;0.50;;;;;;;13.29;58.79;97524.03;29396;234;63005;-52
2023/05/27 01:34:23;;;;;;;0.50;0.50;;;;;;;13.29;58.46;97524.03;29395;197;64014;-51
2023/05/27 01:35:20;;;;;;;0.50;0.50;;;;;;;13.29;58.71;97526.75;29396;210;63005;-52
2023/05/27 01:35:56;;;;;;;0.50;0.50;;;;;;;13.27;58.86;97522.69;29396;204;63009;-52
2023/05/27 01:36:33;;;;;;;0.50;0.50;;;;;;;13.23;59.27;97522.47;29396;197;63005;-52
2023/05/27 01:37:10;;;;;;;0.50;0.50;;;;;;;13.20;59.36;97528.50;29395;223;64005;-52
2023/05/27 01:37:43;;;;;;;0.50;0.50;;;;;;;13.19;59.40;97524.16;29396;354;63004;-61
2023/05/27 01:38:18;;;;;;;0.50;0.50;;;;;;;13.19;59.49;97526.88;29396;267;63009;-53
2023/05/27 01:38:51;;;;;;;0.50;0.50;;;;;;;13.18;59.50;97524.47;29396;266;63004;-52
2023/05/27 01:39:25;;;;;;;0.50;0.50;;;;;;;13.19;58.72;97523.34;29396;272;63009;-52
2023/05/27 01:39:57;;;;;;;0.50;0.50;;;;;;;13.18;59.01;97519.00;29397;259;63004;-52
2023/05/27 01:40:31;;;;;;;0.50;0.50;;;;;;;13.18;58.96;97513.56;29395;239;64013;-51
2023/05/27 01:41:03;;;;;;;0.50;0.50;;;;;;;13.18;59.04;97519.00;29397;502;63005;-52
2023/05/27 01:41:35;;;;;;;0.50;0.50;;;;;;;13.18;59.01;97514.38;29395;202;64014;-52
2023/05/27 01:42:08;;;;;;;0.50;0.50;;;;;;;13.18;59.39;97519.00;29397;197;63005;-52
2023/05/27 01:42:41;;;;;;;0.50;0.50;;;;;;;13.18;60.35;97519.81;29397;231;63009;-52
2023/05/27 01:43:15;;;;;;;0.50;0.50;;;;;;;13.16;60.16;97522.06;29397;377;63005;-52
2023/05/27 01:43:47;;;;;;;0.50;0.50;;;;;;;13.15;60.02;97520.41;29395;197;63009;-52
2023/05/27 01:44:23;;;;;;;0.50;0.50;;;;;;;13.15;60.14;97520.41;29395;242;63005;-51
2023/05/27 01:44:57;;;;;;;0.50;0.50;;;;;;;13.13;60.16;97521.78;29395;226;63009;-62
2023/05/27 01:45:30;;;;;;;0.50;0.50;;;;;;;13.09;59.90;97511.47;29395;266;63008;-52
2023/05/27 01:46:01;;;;;;;0.50;0.50;;;;;;;13.07;60.74;97518.31;29394;220;64013;-52
2023/05/27 01:46:33;;;;;;;0.50;0.50;;;;;;;13.02;61.19;97521.12;29395;208;63008;-52
2023/05/27 01:47:06;;;;;;;0.50;0.50;;;;;;;13.00;61.53;97520.59;29395;254;63009;-52
2023/05/27 01:47:37;;;;;;;0.50;0.50;;;;;;;12.96;61.08;97522.28;29393;309;64008;-52
2023/05/27 01:48:09;;;;;;;0.40;0.40;;;;;;;12.94;60.74;97519.03;29395;233;63023;-51
2023/05/27 01:48:40;;;;;;;0.50;0.50;;;;;;;12.91;61.36;97522.34;29395;229;63007;-52
2023/05/27 01:49:12;;;;;;;0.50;0.50;;;;;;;12.90;61.42;97523.44;29395;233;63009;-52
2023/05/27 01:49:43;;;;;;;0.50;0.50;;;;;;;12.89;61.65;97516.37;29395;234;63005;-52
2023/05/27 01:50:15;;;;;;;0.50;0.50;;;;;;;12.87;62.47;97521.31;29395;210;63009;-52
2023/05/27 01:50:46;;;;;;;0.50;0.50;;;;;;;12.85;61.56;97516.16;29395;197;63005;-52
2023/05/27 01:51:19;;;;;;;0.50;0.50;;;;;;;12.83;61.60;97523.81;29393;236;64013;-52
2023/05/27 01:51:50;;;;;;;0.50;0.50;;;;;;;12.82;62.87;97524.13;29395;222;63005;-52
2023/05/27 01:52:22;;;;;;;0.45;0.45;;;;;;;12.77;62.35;97522.25;29395;256;63009;-63
2023/05/27 01:52:54;;;;;;;0.50;0.50;;;;;;;12.71;63.34;97526.97;29395;314;63004;-53
2023/05/27 01:53:26;;;;;;;0.50;0.50;;;;;;;12.69;63.86;97534.59;29393;211;64013;-52
2023/05/27 01:54:01;;;;;;;0.50;0.50;;;;;;;12.68;62.73;97541.16;29395;204;63004;-52
2023/05/27 01:54:32;;;;;;;0.50;0.50;;;;;;;12.66;63.28;97537.91;29395;196;63009;-52
2023/05/27 01:55:05;;;;;;;0.50;0.50;;;;;;;12.65;63.40;97528.12;29395;213;63004;-52
2023/05/27 01:55:36;;;;;;;0.50;0.50;;;;;;;12.64;63.50;97531.94;29395;205;63008;-52
2023/05/27 01:56:08;;;;;;;0.50;0.50;;;;;;;12.61;63.78;97524.34;29395;283;63009;-52
2023/05/27 01:56:40;;;;;;;0.50;0.50;;;;;;;12.62;63.61;97536.88;29395;210;63017;-62
2023/05/27 01:57:11;;;;;;;0.55;0.55;;;;;;;12.61;63.88;97532.50;29395;203;63005;-52
2023/05/27 01:57:43;;;;;;;1.35;1.35;;;;;;;12.57;63.18;97530.66;29393;247;64013;-52
2023/05/27 01:58:15;;;;;;;0.50;0.50;;;;;;;12.52;63.06;97523.34;29395;271;63011;-52
2023/05/27 01:58:47;;;;;;;0.50;0.50;;;;;;;12.52;63.38;97522.56;29395;244;63009;-62
2023/05/27 01:59:19;;;;;;;0.50;0.50;;;;;;;12.52;64.45;97534.25;29395;197;63005;-52
2023/05/27 01:59:51;;;;;;;0.50;0.50;;;;;;;12.50;64.38;97532.91;29395;452;63009;-53
2023/05/27 02:00:26;;;;;;;0.50;0.50;;;;;;;12.45;65.12;97528.38;29395;205;63004;-52
2023/05/27 02:00:58;;;;;;;0.50;0.50;;;;;;;12.42;65.23;97526.22;29395;238;63009;-52
2023/05/27 02:01:30;;;;;;;0.50;0.50;;;;;;;12.40;64.78;97522.97;29395;247;63004;-52
2023/05/27 02:02:02;;;;;;;0.50;0.50;;;;;;;12.42;64.41;97523.50;29393;199;64013;-52
2023/05/27 02:02:35;;;;;;;0.50;0.50;;;;;;;12.37;65.30;97524.34;29395;244;63004;-61
2023/05/27 02:03:06;;;;;;;0.50;0.50;;;;;;;12.33;64.98;97531.47;29393;492;64013;-62
2023/05/27 02:03:38;;;;;;;0.50;0.50;;;;;;;12.31;63.73;97521.97;29395;245;63005;-52
2023/05/27 02:04:10;;;;;;;0.50;0.50;;;;;;;12.28;64.33;97522.56;29393;240;64014;-61
2023/05/27 02:04:42;;;;;;;0.50;0.50;;;;;;;12.27;64.20;97520.94;29395;243;63011;-52
2023/05/27 02:05:14;;;;;;;0.50;0.50;;;;;;;12.25;64.68;97523.13;29395;219;63009;-52
2023/05/27 02:05:45;;;;;;;0.50;0.50;;;;;;;12.19;64.94;97522.34;29395;272;63005;-53
2023/05/27 02:06:16;;;;;;;0.50;0.50;;;;;;;12.19;65.02;97524.25;29395;228;63009;-53
2023/05/27 02:06:47;;;;;;;0.50;0.50;;;;;;;12.18;64.92;97523.47;29395;245;63005;-53
2023/05/27 02:07:19;;;;;;;0.50;0.50;;;;;;;12.19;64.90;97518.81;29395;337;63009;-53
2023/05/27 02:07:50;;;;;;;0.50;0.50;;;;;;;12.17;66.17;97527.28;29395;248;63004;-52
2023/05/27 02:08:22;;;;;;;0.50;0.50;;;;;;;12.14;66.29;97527.03;29393;196;64013;-52
2023/05/27 02:08:53;;;;;;;0.50;0.50;;;;;;;12.12;67.23;97529.25;29395;225;63004;-53
2023/05/27 02:09:25;;;;;;;0.50;0.50;;;;;;;12.11;66.84;97533.88;29395;223;63009;-52
2023/05/27 02:09:56;;;;;;;0.50;0.50;;;;;;;12.11;66.14;97527.62;29395;490;63017;-52
2023/05/27 02:10:28;;;;;;;0.50;0.50;;;;;;;12.11;66.04;97531.16;29395;215;63009;-52
2023/05/27 02:11:03;;;;;;;0.50;0.50;;;;;;;12.10;65.29;97526.00;29395;384;63005;-52
2023/05/27 02:11:34;;;;;;;0.50;0.50;;;;;;;12.10;65.38;97523.28;29395;271;63019;-51
2023/05/27 02:12:07;;;;;;;0.50;0.50;;;;;;;12.12;65.34;97521.09;29395;248;63005;-52
2023/05/27 02:12:38;;;;;;;0.50;0.50;;;;;;;12.12;65.43;97523.81;29395;215;63009;-52
2023/05/27 02:13:09;;;;;;;0.50;0.50;;;;;;;12.13;65.35;97525.44;29395;211;63005;-61
2023/05/27 02:13:43;;;;;;;0.50;0.50;;;;;;;12.08;66.29;97513.50;29393;251;64013;-52
2023/05/27 02:14:15;;;;;;;0.50;0.50;;;;;;;12.10;67.00;97536.91;29395;255;63005;-52
2023/05/27 02:14:48;;;;;;;0.50;0.50;;;;;;;12.08;66.62;97524.37;29395;246;63009;-53
2023/05/27 02:15:23;;;;;;;0.50;0.50;;;;;;;12.07;66.05;97528.22;29393;463;64009;-53
2023/05/27 02:15:54;;;;;;;0.50;0.50;;;;;;;12.07;66.20;97522.75;29395;255;63009;-52
2023/05/27 02:16:25;;;;;;;0.50;0.50;;;;;;;12.06;67.16;97529.31;29395;391;63004;-52
2023/05/27 02:16:57;;;;;;;0.50;0.50;;;;;;;12.05;66.44;97522.25;29395;204;63009;-52
2023/05/27 02:17:29;;;;;;;0.50;0.50;;;;;;;12.06;66.36;97526.59;29395;318;63004;-52
2023/05/27 02:18:00;;;;;;;0.50;0.50;;;;;;;12.07;66.48;97521.97;29395;215;63009;-53
2023/05/27 02:18:32;;;;;;;0.50;0.50;;;;;;;12.07;67.15;97533.66;29395;199;63005;-53
2023/05/27 02:19:04;;;;;;;0.50;0.50;;;;;;;12.04;67.52;97528.78;29394;239;64014;-53
2023/05/27 02:19:35;;;;;;;0.50;0.50;;;;;;;12.00;67.39;97532.34;29395;423;63005;-53
2023/05/27 02:20:08;;;;;;;0.68;0.68;;;;;;;11.96;67.70;97532.09;29395;197;63015;-53
2023/05/27 02:20:39;;;;;;;0.50;0.50;;;;;;;11.95;68.38;97530.50;29395;202;63005;-53
2023/05/27 02:21:11;;;;;;;0.50;0.50;;;;;;;11.92;67.64;97539.22;29395;252;63009;-52
2023/05/27 02:21:42;;;;;;;0.50;0.50;;;;;;;11.89;67.60;97531.63;29395;199;63005;-53
2023/05/27 02:22:14;;;;;;;0.50;0.50;;;;;;;11.89;67.48;97531.63;29395;436;63009;-53
2023/05/27 02:22:49;;;;;;;0.50;0.50;;;;;;;11.89;67.35;97531.63;29395;351;63004;-53
2023/05/27 02:23:21;;;;;;;0.50;0.50;;;;;;;11.90;66.92;97521.56;29395;256;63009;-53
2023/05/27 02:23:52;;;;;;;0.50;0.50;;;;;;;11.91;66.92;97518.56;29395;225;63004;-53
2023/05/27 02:24:27;;;;;;;0.57;0.57;;;;;;;11.91;66.96;97524.00;29394;232;64013;-52
2023/05/27 02:24:59;;;;;;;0.50;0.50;;;;;;;11.90;67.35;97522.38;29395;331;63004;-53
2023/05/27 02:25:30;;;;;;;0.40;0.40;;;;;;;11.86;67.07;97524.03;29395;248;63005;-52
2023/05/27 02:26:05;;;;;;;0.50;0.50;;;;;;;11.91;67.33;97515.84;29395;203;63005;-53
2023/05/27 02:26:36;;;;;;;0.50;0.50;;;;;;;11.91;67.55;97531.34;29395;230;63015;-52
2023/05/27 02:27:08;;;;;;;0.50;0.50;;;;;;;11.91;67.84;97524.00;29395;450;63005;-53
2023/05/27 02:27:43;;;;;;;0.50;0.50;;;;;;;11.90;67.36;97525.09;29395;214;63009;-62
2023/05/27 02:28:15;;;;;;;0.50;0.50;;;;;;;11.90;67.14;97516.94;29394;467;64009;-53
2023/05/27 02:28:46;;;;;;;0.50;0.50;;;;;;;11.91;66.91;97524.00;29394;249;64013;-53
2023/05/27 02:29:18;;;;;;;0.50;0.50;;;;;;;11.92;66.78;97525.63;29395;196;63005;-63
2023/05/27 02:29:51;;;;;;;0.50;0.50;;;;;;;11.92;66.47;97514.75;29395;202;63015;-63
2023/05/27 02:30:25;;;;;;;0.50;0.50;;;;;;;11.93;66.90;97518.28;29395;236;63004;-63
2023/05/27 02:30:58;;;;;;;0.50;0.50;;;;;;;11.91;67.14;97524.00;29395;199;63009;-53
2023/05/27 02:31:31;;;;;;;0.50;0.50;;;;;;;11.89;67.06;97515.31;29395;208;63004;-53
2023/05/27 02:32:04;;;;;;;0.50;0.50;;;;;;;11.86;68.20;97532.19;29395;273;63009;-63
2023/05/27 02:32:35;;;;;;;0.50;0.50;;;;;;;11.84;67.87;97526.22;29394;438;63995;-54
2023/05/27 02:33:07;;;;;;;0.50;0.50;;;;;;;11.85;67.61;97525.13;29395;312;63009;-54
2023/05/27 02:33:39;;;;;;;0.50;0.50;;;;;;;11.85;67.49;97525.13;29394;361;64009;-54
2023/05/27 02:34:10;;;;;;;0.50;0.50;;;;;;;11.85;66.69;97522.41;29395;274;63009;-54
2023/05/27 02:34:41;;;;;;;0.50;0.50;;;;;;;11.86;66.94;97510.44;29395;239;63005;-52
2023/05/27 02:35:15;;;;;;;0.50;0.50;;;;;;;11.88;66.42;97512.88;29395;278;63009;-53
2023/05/27 02:35:46;;;;;;;0.50;0.50;;;;;;;11.86;66.93;97513.16;29395;242;63005;-52
2023/05/27 02:36:18;;;;;;;0.50;0.50;;;;;;;11.84;67.09;97523.50;29395;214;63009;-53
2023/05/27 02:36:49;;;;;;;0.50;0.50;;;;;;;11.82;67.25;97525.69;29395;204;63005;-53
2023/05/27 02:37:20;;;;;;;0.50;0.50;;;;;;;11.82;67.09;97522.16;29395;197;63009;-53
2023/05/27 02:37:52;;;;;;;0.50;0.50;;;;;;;11.80;67.28;97522.44;29395;274;63004;-53
2023/05/27 02:38:23;;;;;;;0.50;0.50;;;;;;;11.81;66.81;97524.06;29394;234;64013;-53
2023/05/27 02:38:55;;;;;;;0.50;0.50;;;;;;;11.80;66.68;97514.28;29395;233;63004;-53
2023/05/27 02:39:26;;;;;;;0.50;0.50;;;;;;;11.79;66.77;97526.25;29395;303;63009;-53